sensor_id;sensor_type;location;lat;lon;timestamp;P1;durP1;ratioP1;P2;durP2;ratioP2
32491;SDS011;20605;49.742;18.802;2023-05-07T06:25:34;19.30;;;14.90;;
32491;SDS011;20605;49.742;18.802;2023-05-07T06:28:41;14.80;;;13.20;;
32491;SDS011;20605;49.742;18.802;2023-05-07T06:31:42;14.70;;;12.80;;
32491;SDS011;20605;49.742;18.802;2023-05-07T07:02:09;14.10;;;11.30;;
32491;SDS011;20605;49.742;18.802;2023-05-07T07:17:50;16.70;;;11.20;;
32491;SDS011;20605;49.742;18.802;2023-05-07T07:20:50;17.30;;;12.40;;
32491;SDS011;20605;49.742;18.802;2023-05-07T07:24:44;17.60;;;14.70;;
32491;SDS011;20605;49.742;18.802;2023-05-07T07:39:57;26.70;;;21.40;;
32491;SDS011;20605;49.742;18.802;2023-05-07T07:42:52;27.00;;;19.40;;
32491;SDS011;20605;49.742;18.802;2023-05-07T07:46:07;22.80;;;17.40;;
32491;SDS011;20605;49.742;18.802;2023-05-07T07:49:11;24.40;;;20.50;;
32491;SDS011;20605;49.742;18.802;2023-05-07T07:52:44;38.40;;;31.40;;
32491;SDS011;20605;49.742;18.802;2023-05-07T07:55:58;25.70;;;20.30;;
32491;SDS011;20605;49.742;18.802;2023-05-07T07:59:15;23.80;;;19.40;;
32491;SDS011;20605;49.742;18.802;2023-05-07T08:01:58;52.90;;;35.00;;
32491;SDS011;20605;49.742;18.802;2023-05-07T08:05:01;26.40;;;19.40;;
32491;SDS011;20605;49.742;18.802;2023-05-07T08:14:42;25.00;;;19.00;;
32491;SDS011;20605;49.742;18.802;2023-05-07T08:18:49;73.00;;;31.30;;
32491;SDS011;20605;49.742;18.802;2023-05-07T08:25:19;49.90;;;28.30;;
32491;SDS011;20605;49.742;18.802;2023-05-07T08:28:03;61.20;;;32.10;;
32491;SDS011;20605;49.742;18.802;2023-05-07T08:31:00;92.00;;;46.10;;
32491;SDS011;20605;49.742;18.802;2023-05-07T08:33:53;41.20;;;24.30;;
32491;SDS011;20605;49.742;18.802;2023-05-07T08:36:57;48.90;;;21.70;;
32491;SDS011;20605;49.742;18.802;2023-05-07T08:42:53;42.00;;;24.20;;
32491;SDS011;20605;49.742;18.802;2023-05-07T08:45:33;30.10;;;18.00;;
32491;SDS011;20605;49.742;18.802;2023-05-07T08:48:19;19.70;;;13.30;;
32491;SDS011;20605;49.742;18.802;2023-05-07T08:51:58;23.20;;;16.00;;
32491;SDS011;20605;49.742;18.802;2023-05-07T08:54:45;26.10;;;20.80;;
32491;SDS011;20605;49.742;18.802;2023-05-07T09:13:38;15.70;;;13.30;;
32491;SDS011;20605;49.742;18.802;2023-05-07T09:16:31;20.20;;;14.60;;
32491;SDS011;20605;49.742;18.802;2023-05-07T09:23:49;19.40;;;16.20;;
32491;SDS011;20605;49.742;18.802;2023-05-07T09:27:03;17.80;;;15.90;;
32491;SDS011;20605;49.742;18.802;2023-05-07T09:29:52;23.00;;;16.30;;
32491;SDS011;20605;49.742;18.802;2023-05-07T09:32:47;22.70;;;18.70;;
32491;SDS011;20605;49.742;18.802;2023-05-07T09:36:05;19.10;;;17.00;;
32491;SDS011;20605;49.742;18.802;2023-05-07T09:44:43;25.90;;;20.50;;
32491;SDS011;20605;49.742;18.802;2023-05-07T09:54:04;23.10;;;18.30;;
32491;SDS011;20605;49.742;18.802;2023-05-07T09:57:03;30.80;;;24.50;;
32491;SDS011;20605;49.742;18.802;2023-05-07T10:00:52;32.40;;;26.50;;
32491;SDS011;20605;49.742;18.802;2023-05-07T10:04:38;31.30;;;23.80;;
32491;SDS011;20605;49.742;18.802;2023-05-07T10:09:44;32.00;;;21.90;;
32491;SDS011;20605;49.742;18.802;2023-05-07T10:12:21;34.10;;;24.40;;
32491;SDS011;20605;49.742;18.802;2023-05-07T10:16:10;28.70;;;20.00;;
32491;SDS011;20605;49.742;18.802;2023-05-07T10:22:06;35.10;;;24.50;;
32491;SDS011;20605;49.742;18.802;2023-05-07T10:25:33;34.30;;;23.70;;
32491;SDS011;20605;49.742;18.802;2023-05-07T10:37:45;29.20;;;22.20;;
32491;SDS011;20605;49.742;18.802;2023-05-07T10:40:34;32.90;;;22.80;;
32491;SDS011;20605;49.742;18.802;2023-05-07T10:44:29;37.90;;;27.70;;
32491;SDS011;20605;49.742;18.802;2023-05-07T10:47:27;32.30;;;24.50;;
32491;SDS011;20605;49.742;18.802;2023-05-07T10:50:43;27.30;;;19.90;;
32491;SDS011;20605;49.742;18.802;2023-05-07T10:53:32;30.00;;;20.50;;
32491;SDS011;20605;49.742;18.802;2023-05-07T10:59:31;21.20;;;15.70;;
32491;SDS011;20605;49.742;18.802;2023-05-07T11:03:04;16.80;;;14.60;;
32491;SDS011;20605;49.742;18.802;2023-05-07T11:06:20;21.10;;;14.90;;
32491;SDS011;20605;49.742;18.802;2023-05-07T11:15:51;22.50;;;17.70;;
32491;SDS011;20605;49.742;18.802;2023-05-07T11:19:09;14.80;;;12.10;;
32491;SDS011;20605;49.742;18.802;2023-05-07T11:28:23;16.70;;;9.00;;
32491;SDS011;20605;49.742;18.802;2023-05-07T11:31:17;18.00;;;13.40;;
32491;SDS011;20605;49.742;18.802;2023-05-07T11:37:59;9.80;;;8.80;;
32491;SDS011;20605;49.742;18.802;2023-05-07T11:44:44;13.80;;;10.80;;
32491;SDS011;20605;49.742;18.802;2023-05-07T11:48:28;15.40;;;10.90;;
32491;SDS011;20605;49.742;18.802;2023-05-07T11:51:29;11.00;;;9.10;;
32491;SDS011;20605;49.742;18.802;2023-05-07T11:54:36;16.40;;;10.70;;
32491;SDS011;20605;49.742;18.802;2023-05-07T12:05:14;12.30;;;10.90;;
32491;SDS011;20605;49.742;18.802;2023-05-07T12:08:00;28.00;;;18.10;;
32491;SDS011;20605;49.742;18.802;2023-05-07T12:11:15;16.50;;;13.00;;
32491;SDS011;20605;49.742;18.802;2023-05-07T12:14:26;14.80;;;12.30;;
32491;SDS011;20605;49.742;18.802;2023-05-07T12:18:22;16.80;;;14.20;;
32491;SDS011;20605;49.742;18.802;2023-05-07T12:22:18;12.50;;;10.10;;
32491;SDS011;20605;49.742;18.802;2023-05-07T12:25:32;11.60;;;10.50;;
32491;SDS011;20605;49.742;18.802;2023-05-07T12:35:47;14.70;;;10.60;;
32491;SDS011;20605;49.742;18.802;2023-05-07T12:39:03;20.30;;;15.70;;
32491;SDS011;20605;49.742;18.802;2023-05-07T12:42:05;15.80;;;13.30;;
32491;SDS011;20605;49.742;18.802;2023-05-07T12:48:01;11.40;;;10.20;;
32491;SDS011;20605;49.742;18.802;2023-05-07T12:54:15;26.40;;;17.30;;
32491;SDS011;20605;49.742;18.802;2023-05-07T12:57:08;9.70;;;8.60;;
32491;SDS011;20605;49.742;18.802;2023-05-07T13:03:36;13.20;;;10.80;;
32491;SDS011;20605;49.742;18.802;2023-05-07T13:09:45;18.70;;;14.40;;
32491;SDS011;20605;49.742;18.802;2023-05-07T13:12:42;10.50;;;9.40;;
32491;SDS011;20605;49.742;18.802;2023-05-07T13:15:44;16.30;;;10.40;;
32491;SDS011;20605;49.742;18.802;2023-05-07T13:28:05;16.60;;;11.50;;
32491;SDS011;20605;49.742;18.802;2023-05-07T14:35:53;22.60;;;17.80;;
32491;SDS011;20605;49.742;18.802;2023-05-07T14:44:56;32.30;;;21.10;;
32491;SDS011;20605;49.742;18.802;2023-05-07T14:47:45;27.40;;;19.50;;
32491;SDS011;20605;49.742;18.802;2023-05-07T14:50:55;27.80;;;18.20;;
32491;SDS011;20605;49.742;18.802;2023-05-07T14:53:59;24.40;;;16.80;;
32491;SDS011;20605;49.742;18.802;2023-05-07T14:56:29;32.20;;;20.00;;
32491;SDS011;20605;49.742;18.802;2023-05-07T14:59:29;16.40;;;13.20;;
32491;SDS011;20605;49.742;18.802;2023-05-07T15:01:57;15.00;;;12.30;;
32491;SDS011;20605;49.742;18.802;2023-05-07T15:04:25;13.50;;;10.50;;
32491;SDS011;20605;49.742;18.802;2023-05-07T15:06:52;10.60;;;9.50;;
32491;SDS011;20605;49.742;18.802;2023-05-07T15:10:20;11.90;;;9.00;;
32491;SDS011;20605;49.742;18.802;2023-05-07T15:12:49;11.90;;;10.60;;
32491;SDS011;20605;49.742;18.802;2023-05-07T15:15:18;12.10;;;10.90;;
32491;SDS011;20605;49.742;18.802;2023-05-07T15:18:02;13.90;;;11.90;;
32491;SDS011;20605;49.742;18.802;2023-05-07T15:20:34;14.80;;;12.60;;
32491;SDS011;20605;49.742;18.802;2023-05-07T15:23:18;14.30;;;12.10;;
32491;SDS011;20605;49.742;18.802;2023-05-07T15:26:00;14.30;;;10.30;;
32491;SDS011;20605;49.742;18.802;2023-05-07T15:28:29;15.80;;;11.70;;
32491;SDS011;20605;49.742;18.802;2023-05-07T15:30:58;18.20;;;12.80;;
32491;SDS011;20605;49.742;18.802;2023-05-07T15:33:25;17.00;;;10.90;;
32491;SDS011;20605;49.742;18.802;2023-05-07T15:35:54;11.40;;;10.20;;
32491;SDS011;20605;49.742;18.802;2023-05-07T15:38:25;14.00;;;11.50;;
32491;SDS011;20605;49.742;18.802;2023-05-07T15:40:52;11.20;;;9.60;;
32491;SDS011;20605;49.742;18.802;2023-05-07T15:43:19;8.80;;;7.90;;
32491;SDS011;20605;49.742;18.802;2023-05-07T15:45:47;10.90;;;9.60;;
32491;SDS011;20605;49.742;18.802;2023-05-07T15:48:12;10.30;;;8.60;;
32491;SDS011;20605;49.742;18.802;2023-05-07T15:50:38;14.80;;;10.80;;
32491;SDS011;20605;49.742;18.802;2023-05-07T15:53:06;11.20;;;9.20;;
32491;SDS011;20605;49.742;18.802;2023-05-07T15:55:41;9.50;;;7.00;;
32491;SDS011;20605;49.742;18.802;2023-05-07T15:58:08;8.00;;;6.90;;
32491;SDS011;20605;49.742;18.802;2023-05-07T16:00:34;50.70;;;18.10;;
32491;SDS011;20605;49.742;18.802;2023-05-07T16:03:04;9.40;;;6.70;;
32491;SDS011;20605;49.742;18.802;2023-05-07T16:05:31;11.10;;;7.50;;
32491;SDS011;20605;49.742;18.802;2023-05-07T16:07:57;12.80;;;9.60;;
32491;SDS011;20605;49.742;18.802;2023-05-07T16:10:24;62.50;;;25.30;;
32491;SDS011;20605;49.742;18.802;2023-05-07T16:12:50;18.40;;;9.90;;
32491;SDS011;20605;49.742;18.802;2023-05-07T16:15:16;10.00;;;7.90;;
32491;SDS011;20605;49.742;18.802;2023-05-07T16:17:44;26.20;;;14.90;;
32491;SDS011;20605;49.742;18.802;2023-05-07T16:20:12;10.00;;;8.00;;
32491;SDS011;20605;49.742;18.802;2023-05-07T16:22:39;6.90;;;6.20;;
32491;SDS011;20605;49.742;18.802;2023-05-07T16:25:05;7.20;;;6.00;;
32491;SDS011;20605;49.742;18.802;2023-05-07T16:27:31;7.70;;;6.40;;
32491;SDS011;20605;49.742;18.802;2023-05-07T16:29:58;6.20;;;5.50;;
32491;SDS011;20605;49.742;18.802;2023-05-07T16:32:24;7.10;;;6.40;;
32491;SDS011;20605;49.742;18.802;2023-05-07T16:34:52;7.50;;;6.60;;
32491;SDS011;20605;49.742;18.802;2023-05-07T16:37:18;6.30;;;5.70;;
32491;SDS011;20605;49.742;18.802;2023-05-07T16:39:46;6.80;;;6.20;;
32491;SDS011;20605;49.742;18.802;2023-05-07T16:42:12;7.70;;;5.90;;
32491;SDS011;20605;49.742;18.802;2023-05-07T16:44:40;8.20;;;6.60;;
32491;SDS011;20605;49.742;18.802;2023-05-07T16:47:08;7.30;;;5.90;;
32491;SDS011;20605;49.742;18.802;2023-05-07T16:49:35;7.90;;;6.00;;
32491;SDS011;20605;49.742;18.802;2023-05-07T16:52:04;7.00;;;6.00;;
32491;SDS011;20605;49.742;18.802;2023-05-07T16:54:30;8.80;;;6.80;;
32491;SDS011;20605;49.742;18.802;2023-05-07T16:56:57;9.00;;;6.60;;
32491;SDS011;20605;49.742;18.802;2023-05-07T16:59:25;7.50;;;6.20;;
32491;SDS011;20605;49.742;18.802;2023-05-07T17:01:51;7.30;;;6.50;;
32491;SDS011;20605;49.742;18.802;2023-05-07T17:04:18;7.60;;;6.80;;
32491;SDS011;20605;49.742;18.802;2023-05-07T17:06:45;10.80;;;8.70;;
32491;SDS011;20605;49.742;18.802;2023-05-07T17:09:12;9.70;;;8.70;;
32491;SDS011;20605;49.742;18.802;2023-05-07T17:11:38;12.60;;;9.30;;
32491;SDS011;20605;49.742;18.802;2023-05-07T17:14:04;12.60;;;8.90;;
32491;SDS011;20605;49.742;18.802;2023-05-07T17:16:32;14.00;;;9.20;;
32491;SDS011;20605;49.742;18.802;2023-05-07T17:18:58;10.20;;;8.50;;
32491;SDS011;20605;49.742;18.802;2023-05-07T17:21:28;9.60;;;8.50;;
32491;SDS011;20605;49.742;18.802;2023-05-07T17:23:57;14.20;;;9.10;;
32491;SDS011;20605;49.742;18.802;2023-05-07T17:26:24;10.40;;;7.70;;
32491;SDS011;20605;49.742;18.802;2023-05-07T17:28:50;9.40;;;8.30;;
32491;SDS011;20605;49.742;18.802;2023-05-07T17:31:15;12.00;;;9.00;;
32491;SDS011;20605;49.742;18.802;2023-05-07T17:33:41;12.20;;;8.90;;
32491;SDS011;20605;49.742;18.802;2023-05-07T17:36:07;11.90;;;8.30;;
32491;SDS011;20605;49.742;18.802;2023-05-07T17:38:42;11.30;;;9.90;;
32491;SDS011;20605;49.742;18.802;2023-05-07T17:41:09;13.80;;;11.60;;
32491;SDS011;20605;49.742;18.802;2023-05-07T17:43:51;59.30;;;32.80;;
32491;SDS011;20605;49.742;18.802;2023-05-07T17:46:17;16.00;;;12.40;;
32491;SDS011;20605;49.742;18.802;2023-05-07T17:48:43;11.40;;;9.00;;
32491;SDS011;20605;49.742;18.802;2023-05-07T17:51:09;11.40;;;9.30;;
32491;SDS011;20605;49.742;18.802;2023-05-07T17:53:34;10.20;;;8.70;;
32491;SDS011;20605;49.742;18.802;2023-05-07T17:56:00;10.00;;;8.60;;
32491;SDS011;20605;49.742;18.802;2023-05-07T17:58:26;55.10;;;29.70;;
32491;SDS011;20605;49.742;18.802;2023-05-07T18:00:53;53.70;;;32.60;;
32491;SDS011;20605;49.742;18.802;2023-05-07T18:03:20;18.40;;;13.30;;
32491;SDS011;20605;49.742;18.802;2023-05-07T18:05:47;16.00;;;12.40;;
32491;SDS011;20605;49.742;18.802;2023-05-07T18:08:15;14.70;;;12.00;;
32491;SDS011;20605;49.742;18.802;2023-05-07T18:10:42;37.10;;;22.90;;
32491;SDS011;20605;49.742;18.802;2023-05-07T18:13:10;16.00;;;12.90;;
32491;SDS011;20605;49.742;18.802;2023-05-07T18:15:36;22.70;;;16.30;;
32491;SDS011;20605;49.742;18.802;2023-05-07T18:18:04;26.60;;;20.50;;
32491;SDS011;20605;49.742;18.802;2023-05-07T18:20:30;13.50;;;11.50;;
32491;SDS011;20605;49.742;18.802;2023-05-07T18:22:56;12.80;;;10.50;;
32491;SDS011;20605;49.742;18.802;2023-05-07T18:25:32;14.50;;;12.10;;
32491;SDS011;20605;49.742;18.802;2023-05-07T18:27:58;13.00;;;10.30;;
32491;SDS011;20605;49.742;18.802;2023-05-07T18:30:24;13.10;;;10.30;;
32491;SDS011;20605;49.742;18.802;2023-05-07T18:32:50;14.80;;;10.10;;
32491;SDS011;20605;49.742;18.802;2023-05-07T18:35:16;13.60;;;10.10;;
32491;SDS011;20605;49.742;18.802;2023-05-07T18:37:42;17.30;;;11.40;;
32491;SDS011;20605;49.742;18.802;2023-05-07T18:40:09;12.30;;;10.40;;
32491;SDS011;20605;49.742;18.802;2023-05-07T18:42:39;13.80;;;9.90;;
32491;SDS011;20605;49.742;18.802;2023-05-07T18:45:04;12.00;;;10.60;;
32491;SDS011;20605;49.742;18.802;2023-05-07T18:47:30;15.00;;;12.50;;
32491;SDS011;20605;49.742;18.802;2023-05-07T18:49:56;18.30;;;13.40;;
32491;SDS011;20605;49.742;18.802;2023-05-07T18:52:23;18.70;;;12.20;;
32491;SDS011;20605;49.742;18.802;2023-05-07T18:54:50;12.80;;;11.10;;
32491;SDS011;20605;49.742;18.802;2023-05-07T18:57:16;13.60;;;10.30;;
32491;SDS011;20605;49.742;18.802;2023-05-07T18:59:47;11.10;;;9.70;;
32491;SDS011;20605;49.742;18.802;2023-05-07T19:02:25;12.20;;;9.90;;
32491;SDS011;20605;49.742;18.802;2023-05-07T19:04:51;11.00;;;9.60;;
32491;SDS011;20605;49.742;18.802;2023-05-07T19:07:38;13.90;;;10.80;;
32491;SDS011;20605;49.742;18.802;2023-05-07T19:10:19;12.70;;;10.70;;
32491;SDS011;20605;49.742;18.802;2023-05-07T19:12:46;14.00;;;10.80;;
32491;SDS011;20605;49.742;18.802;2023-05-07T19:15:13;13.10;;;10.00;;
32491;SDS011;20605;49.742;18.802;2023-05-07T19:17:39;10.70;;;9.60;;
32491;SDS011;20605;49.742;18.802;2023-05-07T19:20:04;11.20;;;9.80;;
32491;SDS011;20605;49.742;18.802;2023-05-07T19:22:32;11.50;;;10.30;;
32491;SDS011;20605;49.742;18.802;2023-05-07T19:24:57;12.30;;;11.00;;
32491;SDS011;20605;49.742;18.802;2023-05-07T19:27:23;13.60;;;10.30;;
32491;SDS011;20605;49.742;18.802;2023-05-07T19:29:49;12.70;;;10.00;;
32491;SDS011;20605;49.742;18.802;2023-05-07T19:32:15;15.70;;;11.10;;
32491;SDS011;20605;49.742;18.802;2023-05-07T19:34:41;14.10;;;10.10;;
32491;SDS011;20605;49.742;18.802;2023-05-07T19:37:06;11.60;;;9.30;;
32491;SDS011;20605;49.742;18.802;2023-05-07T19:39:32;11.70;;;9.60;;
32491;SDS011;20605;49.742;18.802;2023-05-07T19:42:02;11.10;;;9.80;;
32491;SDS011;20605;49.742;18.802;2023-05-07T19:44:39;12.90;;;11.10;;
32491;SDS011;20605;49.742;18.802;2023-05-07T19:47:08;11.80;;;9.60;;
32491;SDS011;20605;49.742;18.802;2023-05-07T19:49:36;10.00;;;8.90;;
32491;SDS011;20605;49.742;18.802;2023-05-07T19:52:02;11.40;;;10.00;;
32491;SDS011;20605;49.742;18.802;2023-05-07T19:54:29;12.90;;;11.20;;
32491;SDS011;20605;49.742;18.802;2023-05-07T19:57:08;13.10;;;11.30;;
32491;SDS011;20605;49.742;18.802;2023-05-07T19:59:36;13.60;;;11.10;;
32491;SDS011;20605;49.742;18.802;2023-05-07T20:02:02;11.90;;;10.50;;
32491;SDS011;20605;49.742;18.802;2023-05-07T20:04:28;15.90;;;13.20;;
32491;SDS011;20605;49.742;18.802;2023-05-07T20:06:57;13.50;;;10.90;;
32491;SDS011;20605;49.742;18.802;2023-05-07T20:09:24;14.60;;;11.80;;
32491;SDS011;20605;49.742;18.802;2023-05-07T20:11:50;13.10;;;11.50;;
32491;SDS011;20605;49.742;18.802;2023-05-07T20:14:16;17.10;;;12.30;;
32491;SDS011;20605;49.742;18.802;2023-05-07T20:16:43;18.40;;;12.40;;
32491;SDS011;20605;49.742;18.802;2023-05-07T20:19:10;13.60;;;11.80;;
32491;SDS011;20605;49.742;18.802;2023-05-07T20:21:35;14.30;;;10.70;;
32491;SDS011;20605;49.742;18.802;2023-05-07T20:24:01;14.50;;;11.30;;
32491;SDS011;20605;49.742;18.802;2023-05-07T20:26:27;16.70;;;12.00;;
32491;SDS011;20605;49.742;18.802;2023-05-07T20:28:58;13.90;;;12.00;;
32491;SDS011;20605;49.742;18.802;2023-05-07T20:31:27;15.40;;;11.50;;
32491;SDS011;20605;49.742;18.802;2023-05-07T20:33:57;12.70;;;11.10;;
32491;SDS011;20605;49.742;18.802;2023-05-07T20:36:22;12.20;;;10.00;;
32491;SDS011;20605;49.742;18.802;2023-05-07T20:38:50;11.70;;;10.00;;
32491;SDS011;20605;49.742;18.802;2023-05-07T20:41:16;14.80;;;10.60;;
32491;SDS011;20605;49.742;18.802;2023-05-07T20:43:43;17.80;;;12.30;;
32491;SDS011;20605;49.742;18.802;2023-05-07T20:46:08;21.60;;;14.00;;
32491;SDS011;20605;49.742;18.802;2023-05-07T20:48:34;17.60;;;13.10;;
32491;SDS011;20605;49.742;18.802;2023-05-07T20:51:01;17.60;;;13.20;;
32491;SDS011;20605;49.742;18.802;2023-05-07T20:53:27;24.60;;;15.90;;
32491;SDS011;20605;49.742;18.802;2023-05-07T20:55:57;19.30;;;13.70;;
32491;SDS011;20605;49.742;18.802;2023-05-07T20:58:24;14.90;;;12.50;;
32491;SDS011;20605;49.742;18.802;2023-05-07T21:00:52;16.00;;;13.50;;
32491;SDS011;20605;49.742;18.802;2023-05-07T21:03:18;17.20;;;13.20;;
32491;SDS011;20605;49.742;18.802;2023-05-07T21:05:51;16.20;;;13.10;;
32491;SDS011;20605;49.742;18.802;2023-05-07T21:08:24;14.60;;;11.10;;
32491;SDS011;20605;49.742;18.802;2023-05-07T21:10:51;15.80;;;11.50;;
32491;SDS011;20605;49.742;18.802;2023-05-07T21:13:17;15.90;;;12.40;;
32491;SDS011;20605;49.742;18.802;2023-05-07T21:15:44;14.70;;;12.70;;
32491;SDS011;20605;49.742;18.802;2023-05-07T21:18:13;15.70;;;13.70;;
32491;SDS011;20605;49.742;18.802;2023-05-07T21:20:42;17.30;;;12.80;;
32491;SDS011;20605;49.742;18.802;2023-05-07T21:23:09;14.30;;;12.40;;
32491;SDS011;20605;49.742;18.802;2023-05-07T21:25:39;13.70;;;12.10;;
32491;SDS011;20605;49.742;18.802;2023-05-07T21:28:07;15.20;;;12.10;;
32491;SDS011;20605;49.742;18.802;2023-05-07T21:30:33;16.80;;;13.10;;
32491;SDS011;20605;49.742;18.802;2023-05-07T21:33:00;17.00;;;13.50;;
32491;SDS011;20605;49.742;18.802;2023-05-07T21:35:26;24.90;;;15.40;;
32491;SDS011;20605;49.742;18.802;2023-05-07T21:37:53;18.80;;;13.00;;
32491;SDS011;20605;49.742;18.802;2023-05-07T21:40:19;13.60;;;10.60;;
32491;SDS011;20605;49.742;18.802;2023-05-07T21:42:44;11.90;;;9.80;;
32491;SDS011;20605;49.742;18.802;2023-05-07T21:45:10;18.50;;;12.30;;
32491;SDS011;20605;49.742;18.802;2023-05-07T21:47:37;14.30;;;11.90;;
32491;SDS011;20605;49.742;18.802;2023-05-07T21:50:02;13.30;;;11.90;;
32491;SDS011;20605;49.742;18.802;2023-05-07T21:52:29;15.30;;;11.80;;
32491;SDS011;20605;49.742;18.802;2023-05-07T21:54:56;15.50;;;12.20;;
32491;SDS011;20605;49.742;18.802;2023-05-07T21:57:22;14.50;;;11.50;;
32491;SDS011;20605;49.742;18.802;2023-05-07T21:59:51;14.20;;;11.20;;
32491;SDS011;20605;49.742;18.802;2023-05-07T22:02:16;11.90;;;10.60;;
32491;SDS011;20605;49.742;18.802;2023-05-07T22:04:44;13.20;;;11.00;;
32491;SDS011;20605;49.742;18.802;2023-05-07T22:07:10;14.70;;;11.50;;
32491;SDS011;20605;49.742;18.802;2023-05-07T22:09:36;14.20;;;10.30;;
32491;SDS011;20605;49.742;18.802;2023-05-07T22:12:01;16.90;;;12.60;;
32491;SDS011;20605;49.742;18.802;2023-05-07T22:14:27;16.40;;;12.40;;
32491;SDS011;20605;49.742;18.802;2023-05-07T22:16:53;14.40;;;10.90;;
32491;SDS011;20605;49.742;18.802;2023-05-07T22:19:19;12.50;;;9.50;;
32491;SDS011;20605;49.742;18.802;2023-05-07T22:21:45;13.70;;;10.00;;
32491;SDS011;20605;49.742;18.802;2023-05-07T22:24:11;14.50;;;10.20;;
32491;SDS011;20605;49.742;18.802;2023-05-07T22:26:39;16.30;;;12.10;;
32491;SDS011;20605;49.742;18.802;2023-05-07T22:29:05;15.60;;;11.00;;
32491;SDS011;20605;49.742;18.802;2023-05-07T22:31:31;15.00;;;11.20;;
32491;SDS011;20605;49.742;18.802;2023-05-07T22:33:56;15.80;;;13.20;;
32491;SDS011;20605;49.742;18.802;2023-05-07T22:36:22;12.10;;;9.80;;
32491;SDS011;20605;49.742;18.802;2023-05-07T22:38:48;12.70;;;10.30;;
32491;SDS011;20605;49.742;18.802;2023-05-07T22:41:14;14.50;;;9.90;;
32491;SDS011;20605;49.742;18.802;2023-05-07T22:43:39;12.90;;;10.20;;
32491;SDS011;20605;49.742;18.802;2023-05-07T22:46:05;12.50;;;9.30;;
32491;SDS011;20605;49.742;18.802;2023-05-07T22:48:31;11.70;;;9.20;;
32491;SDS011;20605;49.742;18.802;2023-05-07T22:50:57;12.60;;;10.10;;
32491;SDS011;20605;49.742;18.802;2023-05-07T22:53:23;10.90;;;9.30;;
32491;SDS011;20605;49.742;18.802;2023-05-07T22:55:49;11.40;;;9.50;;
32491;SDS011;20605;49.742;18.802;2023-05-07T22:58:14;13.30;;;10.10;;
32491;SDS011;20605;49.742;18.802;2023-05-07T23:00:40;17.30;;;10.90;;
32491;SDS011;20605;49.742;18.802;2023-05-07T23:03:06;14.90;;;11.20;;
32491;SDS011;20605;49.742;18.802;2023-05-07T23:05:32;17.40;;;11.60;;
32491;SDS011;20605;49.742;18.802;2023-05-07T23:07:58;18.50;;;11.70;;
32491;SDS011;20605;49.742;18.802;2023-05-07T23:10:24;18.30;;;11.30;;
32491;SDS011;20605;49.742;18.802;2023-05-07T23:12:49;12.60;;;9.70;;
32491;SDS011;20605;49.742;18.802;2023-05-07T23:15:16;13.40;;;9.90;;
32491;SDS011;20605;49.742;18.802;2023-05-07T23:17:42;17.70;;;13.20;;
32491;SDS011;20605;49.742;18.802;2023-05-07T23:20:10;10.90;;;9.40;;
32491;SDS011;20605;49.742;18.802;2023-05-07T23:22:38;9.40;;;8.00;;
32491;SDS011;20605;49.742;18.802;2023-05-07T23:25:06;10.20;;;8.30;;
32491;SDS011;20605;49.742;18.802;2023-05-07T23:27:33;10.10;;;8.10;;
32491;SDS011;20605;49.742;18.802;2023-05-07T23:30:00;11.10;;;8.90;;
32491;SDS011;20605;49.742;18.802;2023-05-07T23:32:29;10.50;;;9.10;;
32491;SDS011;20605;49.742;18.802;2023-05-07T23:35:08;10.60;;;7.30;;
32491;SDS011;20605;49.742;18.802;2023-05-07T23:37:39;8.60;;;7.70;;
32491;SDS011;20605;49.742;18.802;2023-05-07T23:40:06;17.20;;;11.20;;
32491;SDS011;20605;49.742;18.802;2023-05-07T23:42:32;8.40;;;6.60;;
32491;SDS011;20605;49.742;18.802;2023-05-07T23:44:58;12.60;;;8.30;;
32491;SDS011;20605;49.742;18.802;2023-05-07T23:47:24;13.00;;;8.70;;
32491;SDS011;20605;49.742;18.802;2023-05-07T23:49:49;8.20;;;6.60;;
32491;SDS011;20605;49.742;18.802;2023-05-07T23:52:15;8.30;;;6.40;;
32491;SDS011;20605;49.742;18.802;2023-05-07T23:54:41;13.60;;;9.00;;
32491;SDS011;20605;49.742;18.802;2023-05-07T23:57:08;8.90;;;6.60;;
32491;SDS011;20605;49.742;18.802;2023-05-07T23:59:34;6.90;;;6.00;;
